Time;durP1;ratioP1;P1;durP2;ratioP2;P2;SDS_P1;SDS_P2;PMS_P1;PMS_P2;Temp;Humidity;BMP_temperature;BMP_pressure;BME280_temperature;BME280_humidity;BME280_pressure;Samples;Min_cycle;Max_cycle;Signal;HPM_P1;HPM_P2
2023/09/16 00:01:20;;;;;;;5.07;3.40;;;17.50;99.90;;;;;;5084154;28;20110;-43
2023/09/16 00:03:46;;;;;;;4.13;3.13;;;17.50;99.90;;;;;;5085291;28;20165;-42
2023/09/16 00:06:12;;;;;;;4.38;3.25;;;17.50;99.90;;;;;;5083900;28;20036;-42
2023/09/16 00:08:42;;;;;;;4.68;3.40;;;17.50;99.90;;;;;;5085441;28;20020;-42
2023/09/16 00:11:10;;;;;;;4.13;3.47;;;17.50;99.90;;;;;;5084566;28;20448;-43
2023/09/16 00:13:36;;;;;;;3.90;2.80;;;17.50;99.90;;;;;;5084758;28;20020;-43
2023/09/16 00:16:08;;;;;;;5.18;3.55;;;17.50;99.90;;;;;;5084991;28;20723;-42
2023/09/16 00:18:34;;;;;;;3.30;2.97;;;17.50;99.90;;;;;;5085513;28;20039;-43
2023/09/16 00:21:02;;;;;;;4.05;3.20;;;17.40;99.90;;;;;;5082882;28;20048;-43
2023/09/16 00:23:28;;;;;;;4.70;2.88;;;17.50;99.90;;;;;;5085565;28;20032;-43
2023/09/16 00:25:54;;;;;;;3.28;2.90;;;17.40;99.90;;;;;;5085010;28;20036;-43
2023/09/16 00:28:19;;;;;;;3.65;3.30;;;17.50;99.90;;;;;;5083759;28;20360;-43
2023/09/16 00:30:51;;;;;;;3.85;3.10;;;17.40;99.90;;;;;;5085470;28;20106;-43
2023/09/16 00:33:16;;;;;;;4.20;3.38;;;17.40;99.90;;;;;;5083355;28;20020;-42
2023/09/16 00:35:42;;;;;;;3.70;3.10;;;17.40;99.90;;;;;;5084339;28;20081;-43
2023/09/16 00:38:10;;;;;;;3.60;3.30;;;17.50;99.90;;;;;;5084973;28;20111;-43
2023/09/16 00:40:37;;;;;;;4.82;3.58;;;17.40;99.90;;;;;;5084625;28;20073;-43
2023/09/16 00:43:02;;;;;;;5.97;3.80;;;17.40;99.90;;;;;;5083794;28;20024;-42
2023/09/16 00:45:33;;;;;;;5.10;3.55;;;17.40;99.90;;;;;;5084712;28;20039;-43
2023/09/16 00:48:01;;;;;;;4.10;3.30;;;17.50;99.90;;;;;;5083825;28;20020;-42
2023/09/16 00:50:27;;;;;;;4.78;3.85;;;17.50;99.90;;;;;;5084708;28;20085;-43
2023/09/16 00:52:59;;;;;;;5.43;3.60;;;17.50;99.90;;;;;;5084704;28;20483;-42
2023/09/16 00:55:26;;;;;;;5.53;3.55;;;17.50;99.90;;;;;;5085365;28;20044;-42
2023/09/16 00:57:53;;;;;;;3.65;3.33;;;17.40;99.90;;;;;;5084556;28;20055;-42
2023/09/16 01:00:20;;;;;;;3.50;3.20;;;17.50;99.90;;;;;;5084359;28;20028;-42
2023/09/16 01:02:46;;;;;;;4.20;3.17;;;17.50;99.90;;;;;;5084111;28;20590;-42
2023/09/16 01:05:16;;;;;;;4.53;3.53;;;17.50;99.90;;;;;;5084502;28;20470;-43
2023/09/16 01:07:45;;;;;;;4.65;3.25;;;17.40;99.90;;;;;;5084667;28;20117;-42
2023/09/16 01:10:13;;;;;;;3.83;3.28;;;17.40;99.90;;;;;;5062915;28;20032;-42
2023/09/16 01:12:39;;;;;;;4.53;3.40;;;17.40;99.90;;;;;;5078791;28;20491;-42
2023/09/16 01:15:08;;;;;;;5.63;3.33;;;17.40;99.90;;;;;;5084225;28;20035;-42
2023/09/16 01:17:42;;;;;;;4.50;3.30;;;17.40;99.90;;;;;;5083886;28;20024;-42
2023/09/16 01:20:15;;;;;;;3.95;3.55;;;17.40;99.90;;;;;;5084042;28;20100;-42
2023/09/16 01:22:45;;;;;;;5.28;3.40;;;17.40;99.90;;;;;;5084598;28;20498;-42
2023/09/16 01:25:12;;;;;;;3.67;3.35;;;17.40;99.90;;;;;;5083261;28;20036;-43
2023/09/16 01:27:38;;;;;;;3.47;3.17;;;17.40;99.90;;;;;;5084451;28;20347;-42
2023/09/16 01:30:05;;;;;;;3.75;3.42;;;17.30;99.90;;;;;;5084292;28;20032;-42
2023/09/16 01:32:57;;;;;;;3.53;3.22;;;17.30;99.90;;;;;;5084237;28;20020;-43
2023/09/16 01:35:27;;;;;;;3.40;3.10;;;17.30;99.90;;;;;;5083927;28;20039;-42
2023/09/16 01:37:53;;;;;;;4.18;3.70;;;17.30;99.90;;;;;;5084665;28;20020;-43
2023/09/16 01:40:23;;;;;;;4.68;3.53;;;17.30;99.90;;;;;;5087794;28;20432;-43
2023/09/16 01:42:50;;;;;;;4.63;4.05;;;17.30;99.90;;;;;;5087953;28;20052;-42
2023/09/16 01:45:16;;;;;;;4.18;3.78;;;17.30;99.90;;;;;;5086539;28;20067;-43
2023/09/16 01:47:43;;;;;;;4.30;3.90;;;17.30;99.90;;;;;;5087864;28;20902;-43
2023/09/16 01:50:09;;;;;;;3.92;3.40;;;17.30;99.90;;;;;;5076572;28;20032;-42
2023/09/16 01:52:34;;;;;;;3.55;3.25;;;17.20;99.90;;;;;;5087407;28;20107;-43
2023/09/16 01:55:00;;;;;;;4.57;3.80;;;17.20;99.90;;;;;;5086899;28;20469;-44
2023/09/16 01:57:26;;;;;;;5.05;3.63;;;17.20;99.90;;;;;;5087724;28;20023;-42
2023/09/16 01:59:57;;;;;;;4.32;3.67;;;17.20;99.90;;;;;;5087106;28;20023;-42
2023/09/16 02:02:23;;;;;;;5.25;3.72;;;17.20;99.90;;;;;;5086664;28;20044;-43
2023/09/16 02:04:48;;;;;;;4.18;3.63;;;17.20;99.90;;;;;;5086989;28;20478;-43
2023/09/16 02:07:16;;;;;;;4.70;3.72;;;17.10;99.90;;;;;;5086943;28;20091;-42
2023/09/16 02:09:42;;;;;;;4.10;3.70;;;17.10;99.90;;;;;;5087074;28;20097;-42
2023/09/16 02:12:08;;;;;;;3.80;3.40;;;17.10;99.90;;;;;;5087048;28;20052;-43
2023/09/16 02:14:38;;;;;;;4.28;3.70;;;17.10;99.90;;;;;;5086532;28;20031;-42
2023/09/16 02:17:04;;;;;;;4.78;3.92;;;17.10;99.90;;;;;;5087283;28;20030;-42
2023/09/16 02:19:32;;;;;;;4.43;3.83;;;17.00;99.90;;;;;;5086607;28;20020;-43
2023/09/16 02:21:58;;;;;;;4.57;4.15;;;17.00;99.90;;;;;;5086903;28;20105;-43
2023/09/16 02:24:23;;;;;;;4.78;4.25;;;17.00;99.90;;;;;;5087487;28;20107;-41
2023/09/16 02:26:49;;;;;;;3.95;3.58;;;17.00;99.90;;;;;;5086468;28;20075;-41
2023/09/16 02:29:14;;;;;;;4.25;3.85;;;17.00;99.90;;;;;;5086355;28;20028;-42
2023/09/16 02:31:40;;;;;;;4.90;4.40;;;17.00;99.90;;;;;;5087362;28;20039;-42
2023/09/16 02:34:05;;;;;;;5.10;4.28;;;17.00;99.90;;;;;;5085330;28;20103;-43
2023/09/16 02:36:31;;;;;;;5.38;4.18;;;17.00;99.90;;;;;;5086968;28;20118;-43
2023/09/16 02:38:57;;;;;;;6.10;4.57;;;17.00;99.90;;;;;;5087248;28;20024;-43
2023/09/16 02:41:22;;;;;;;6.50;4.93;;;16.90;99.90;;;;;;5086256;28;20020;-43
2023/09/16 02:43:51;;;;;;;4.95;4.45;;;16.90;99.90;;;;;;5087031;28;20020;-43
2023/09/16 02:46:22;;;;;;;6.43;4.60;;;16.90;99.90;;;;;;5086095;28;20040;-43
2023/09/16 02:48:48;;;;;;;5.13;4.55;;;16.90;99.90;;;;;;5085919;28;20040;-43
2023/09/16 02:51:14;;;;;;;5.45;4.68;;;16.90;99.90;;;;;;5087846;28;20477;-43
2023/09/16 02:53:39;;;;;;;5.20;4.43;;;16.80;99.90;;;;;;5087452;28;20058;-43
2023/09/16 02:56:06;;;;;;;4.63;4.18;;;16.80;99.90;;;;;;5085879;28;20529;-42
2023/09/16 02:58:32;;;;;;;4.80;4.20;;;16.80;99.90;;;;;;5086241;28;20028;-43
2023/09/16 03:00:57;;;;;;;6.28;4.72;;;16.80;99.90;;;;;;5086243;28;20051;-44
2023/09/16 03:03:23;;;;;;;6.35;4.22;;;16.80;99.90;;;;;;5085344;28;20048;-43
2023/09/16 03:05:49;;;;;;;6.57;4.55;;;16.80;99.90;;;;;;5086119;28;20032;-45
2023/09/16 03:08:14;;;;;;;5.50;4.82;;;16.70;99.90;;;;;;5066199;28;20035;-43
2023/09/16 03:10:45;;;;;;;5.22;4.68;;;16.70;99.90;;;;;;5071853;28;20837;-42
2023/09/16 03:13:13;;;;;;;5.88;5.22;;;16.70;99.90;;;;;;5085902;28;20028;-42
2023/09/16 03:15:45;;;;;;;5.38;4.45;;;16.70;99.90;;;;;;5085701;28;20020;-42
2023/09/16 03:18:13;;;;;;;6.57;5.57;;;16.70;99.90;;;;;;5075327;28;20496;-42
2023/09/16 03:20:38;;;;;;;6.43;5.05;;;16.70;99.90;;;;;;5083243;28;20536;-42
2023/09/16 03:23:04;;;;;;;10.32;5.70;;;16.70;99.90;;;;;;5084686;28;20066;-43
2023/09/16 03:25:30;;;;;;;6.10;5.50;;;16.70;99.90;;;;;;5085881;28;20056;-44
2023/09/16 03:27:55;;;;;;;6.60;5.47;;;16.70;99.90;;;;;;5085884;28;20024;-42
2023/09/16 03:30:21;;;;;;;6.65;5.70;;;16.70;99.90;;;;;;5085397;28;20024;-43
2023/09/16 03:32:46;;;;;;;8.88;6.43;;;16.70;99.90;;;;;;5085892;28;20448;-42
2023/09/16 03:35:12;;;;;;;8.27;7.13;;;16.70;99.90;;;;;;5085634;28;20028;-43
2023/09/16 03:37:37;;;;;;;9.00;7.45;;;16.60;99.90;;;;;;5085386;28;20508;-43
2023/09/16 03:40:03;;;;;;;9.40;8.27;;;16.60;99.90;;;;;;5085381;28;20024;-43
2023/09/16 03:42:29;;;;;;;9.23;7.90;;;16.60;99.90;;;;;;5085477;28;20069;-41
2023/09/16 03:44:55;;;;;;;9.98;7.60;;;16.60;99.90;;;;;;5085039;28;20111;-42
2023/09/16 03:47:20;;;;;;;8.35;6.43;;;16.60;99.90;;;;;;5084425;28;20107;-42
2023/09/16 03:49:48;;;;;;;6.80;5.95;;;16.60;99.90;;;;;;5085330;28;20107;-43
2023/09/16 03:52:14;;;;;;;7.43;5.50;;;16.60;99.90;;;;;;5084488;28;20036;-43
2023/09/16 03:54:39;;;;;;;6.88;5.85;;;16.50;99.90;;;;;;5085428;28;20149;-42
2023/09/16 03:57:05;;;;;;;6.57;5.85;;;16.50;99.90;;;;;;5084676;28;20030;-43
2023/09/16 03:59:31;;;;;;;6.60;5.78;;;16.50;99.90;;;;;;5085507;28;20103;-42
2023/09/16 04:01:56;;;;;;;5.82;5.22;;;16.50;99.90;;;;;;5085427;28;20141;-42
2023/09/16 04:04:22;;;;;;;5.82;5.22;;;16.50;99.90;;;;;;5085581;28;20356;-43
2023/09/16 04:06:47;;;;;;;6.20;5.10;;;16.50;99.90;;;;;;5085014;28;20040;-42
2023/09/16 04:09:13;;;;;;;6.18;5.35;;;16.40;99.90;;;;;;5084706;28;20026;-42
2023/09/16 04:11:38;;;;;;;6.70;5.57;;;16.40;99.90;;;;;;5085097;28;20031;-43
2023/09/16 04:14:04;;;;;;;5.82;5.22;;;16.40;99.90;;;;;;5083432;28;20139;-43
2023/09/16 04:16:29;;;;;;;5.80;5.18;;;16.50;99.90;;;;;;5084910;28;20028;-43
2023/09/16 04:18:55;;;;;;;6.25;5.53;;;16.40;99.90;;;;;;5085198;28;20024;-43
2023/09/16 04:21:21;;;;;;;6.82;5.88;;;16.50;99.90;;;;;;5084465;28;20512;-43
2023/09/16 04:23:46;;;;;;;8.48;5.68;;;16.40;99.90;;;;;;5084670;28;20032;-43
2023/09/16 04:26:15;;;;;;;5.93;5.32;;;16.40;99.90;;;;;;5083686;28;20039;-42
2023/09/16 04:28:40;;;;;;;6.28;5.65;;;16.40;99.90;;;;;;5084869;28;20024;-42
2023/09/16 04:31:08;;;;;;;6.45;5.68;;;16.40;99.90;;;;;;5084316;28;20094;-43
2023/09/16 04:33:34;;;;;;;6.45;5.60;;;16.40;99.90;;;;;;5084224;28;20532;-43
2023/09/16 04:36:00;;;;;;;7.03;5.60;;;16.30;99.90;;;;;;5084392;28;20031;-42
2023/09/16 04:38:26;;;;;;;6.35;5.75;;;16.40;99.90;;;;;;5084801;28;20102;-42
2023/09/16 04:40:51;;;;;;;6.07;5.45;;;16.30;99.90;;;;;;5084246;28;20044;-42
2023/09/16 04:43:20;;;;;;;6.80;5.57;;;16.30;99.90;;;;;;5083847;28;20020;-41
2023/09/16 04:45:48;;;;;;;6.35;5.55;;;16.30;99.90;;;;;;5085284;28;20040;-42
2023/09/16 04:48:14;;;;;;;6.95;6.25;;;16.30;99.90;;;;;;5084028;28;20068;-43
2023/09/16 04:50:42;;;;;;;6.63;6.03;;;16.30;99.90;;;;;;5084439;28;20061;-42
2023/09/16 04:53:09;;;;;;;7.00;6.28;;;16.30;99.90;;;;;;5084017;28;20475;-43
2023/09/16 04:55:35;;;;;;;6.25;5.60;;;16.30;99.90;;;;;;5083918;28;20125;-42
2023/09/16 04:58:01;;;;;;;7.13;5.57;;;16.20;99.90;;;;;;5084206;28;20099;-41
2023/09/16 05:00:32;;;;;;;7.03;6.03;;;16.20;99.90;;;;;;5084314;28;20028;-42
2023/09/16 05:03:02;;;;;;;6.60;5.70;;;16.30;99.90;;;;;;5063456;28;20082;-42
2023/09/16 05:05:27;;;;;;;6.15;5.55;;;16.20;99.90;;;;;;5079983;28;20381;-43
2023/09/16 05:07:53;;;;;;;7.38;5.45;;;16.20;99.90;;;;;;5084697;28;20483;-42
2023/09/16 05:10:21;;;;;;;6.10;5.50;;;16.20;99.90;;;;;;5083040;28;20070;-42
2023/09/16 05:12:47;;;;;;;8.25;5.85;;;16.20;99.90;;;;;;5084901;28;20443;-41
2023/09/16 05:15:15;;;;;;;7.40;6.03;;;16.20;99.90;;;;;;5087381;28;20114;-43
2023/09/16 05:17:41;;;;;;;7.35;5.78;;;16.20;99.90;;;;;;5088471;28;20024;-43
2023/09/16 05:20:07;;;;;;;6.03;5.43;;;16.20;99.90;;;;;;5087669;28;20028;-42
2023/09/16 05:22:33;;;;;;;6.85;5.88;;;16.10;99.90;;;;;;5088078;28;20013;-42
2023/09/16 05:25:05;;;;;;;6.80;5.88;;;16.10;99.90;;;;;;5087604;28;20036;-43
2023/09/16 05:27:31;;;;;;;7.68;5.93;;;16.10;99.90;;;;;;5088823;28;20042;-42
2023/09/16 05:29:57;;;;;;;6.55;5.90;;;16.10;99.90;;;;;;5087417;28;20546;-43
2023/09/16 05:32:22;;;;;;;7.15;6.45;;;16.10;99.90;;;;;;5087945;28;20028;-43
2023/09/16 05:34:48;;;;;;;7.53;6.55;;;16.10;99.90;;;;;;5087957;28;20023;-43
2023/09/16 05:37:13;;;;;;;6.88;6.20;;;16.20;99.90;;;;;;5086614;28;20024;-44
2023/09/16 05:39:42;;;;;;;7.13;5.90;;;16.20;99.90;;;;;;5088275;28;20115;-42
2023/09/16 05:42:07;;;;;;;6.47;5.88;;;16.20;99.90;;;;;;5087204;28;20016;-42
2023/09/16 05:44:33;;;;;;;9.90;6.03;;;16.20;99.90;;;;;;5087538;28;20033;-43
2023/09/16 05:46:59;;;;;;;6.20;5.60;;;16.20;99.90;;;;;;5087744;28;20098;-43
2023/09/16 05:49:27;;;;;;;6.20;5.47;;;16.20;99.90;;;;;;5087058;28;20095;-42
2023/09/16 05:51:52;;;;;;;7.38;5.88;;;16.20;99.90;;;;;;5086831;28;20455;-43
2023/09/16 05:54:18;;;;;;;5.88;5.28;;;16.20;99.90;;;;;;5087208;28;20031;-43
2023/09/16 05:56:47;;;;;;;5.70;5.13;;;16.20;99.90;;;;;;5087779;28;20036;-42
2023/09/16 05:59:14;;;;;;;7.18;5.63;;;16.20;99.90;;;;;;5086128;28;20035;-42
2023/09/16 06:01:40;;;;;;;6.13;5.38;;;16.20;99.90;;;;;;5087180;28;20044;-42
2023/09/16 06:04:05;;;;;;;6.30;5.53;;;16.30;99.90;;;;;;5087166;28;20059;-42
2023/09/16 06:06:31;;;;;;;6.38;5.78;;;16.30;99.90;;;;;;5086516;28;20150;-42
2023/09/16 06:09:04;;;;;;;7.05;6.05;;;16.30;99.90;;;;;;5087570;28;20500;-42
2023/09/16 06:11:30;;;;;;;6.90;6.20;;;16.30;99.90;;;;;;5086206;28;20020;-42
2023/09/16 06:13:56;;;;;;;8.32;6.10;;;16.40;99.90;;;;;;5087211;28;20039;-43
2023/09/16 06:16:22;;;;;;;7.28;5.80;;;16.40;99.90;;;;;;5087139;28;20024;-43
2023/09/16 06:18:48;;;;;;;6.20;5.60;;;16.40;99.90;;;;;;5086496;28;20400;-44
2023/09/16 06:21:15;;;;;;;6.60;5.70;;;16.40;99.90;;;;;;5086887;28;20502;-42
2023/09/16 06:23:42;;;;;;;8.85;5.60;;;16.50;99.90;;;;;;5087036;28;20038;-43
2023/09/16 06:26:09;;;;;;;6.15;5.55;;;16.50;99.90;;;;;;5085719;28;20111;-43
2023/09/16 06:28:35;;;;;;;5.50;5.00;;;16.50;99.90;;;;;;5087044;28;20206;-43
2023/09/16 06:31:01;;;;;;;6.82;5.85;;;16.60;99.90;;;;;;5086847;28;20024;-42
2023/09/16 06:33:27;;;;;;;6.00;5.43;;;16.60;99.90;;;;;;5086443;28;20024;-42
2023/09/16 06:35:52;;;;;;;6.82;5.30;;;16.60;99.90;;;;;;5087256;28;20059;-42
2023/09/16 06:38:18;;;;;;;7.00;5.57;;;16.70;99.90;;;;;;5086425;28;20012;-42
2023/09/16 06:40:43;;;;;;;5.85;5.25;;;16.70;99.90;;;;;;5086688;28;20499;-43
2023/09/16 06:43:09;;;;;;;6.47;4.75;;;16.70;99.90;;;;;;5086490;28;20016;-42
2023/09/16 06:45:35;;;;;;;5.22;4.72;;;16.80;99.90;;;;;;5087423;28;20350;-42
2023/09/16 06:48:04;;;;;;;5.32;4.82;;;16.80;99.90;;;;;;5085330;28;20023;-43
2023/09/16 06:50:29;;;;;;;5.38;4.65;;;16.80;99.90;;;;;;5086269;28;20035;-43
2023/09/16 06:52:55;;;;;;;5.40;4.90;;;16.90;99.90;;;;;;5087175;28;20017;-43
2023/09/16 06:55:20;;;;;;;5.32;4.82;;;17.00;99.90;;;;;;5074500;28;20031;-43
2023/09/16 06:57:46;;;;;;;5.20;4.70;;;17.00;99.90;;;;;;5086874;28;20317;-43
2023/09/16 07:00:13;;;;;;;5.97;5.32;;;17.00;99.90;;;;;;5085703;28;20042;-43
2023/09/16 07:02:38;;;;;;;5.90;5.22;;;17.10;99.90;;;;;;5085327;28;20182;-43
2023/09/16 07:05:04;;;;;;;5.15;4.65;;;17.10;99.90;;;;;;5085344;28;20139;-43
2023/09/16 07:07:29;;;;;;;5.43;4.93;;;17.10;99.90;;;;;;5086865;28;20055;-42
2023/09/16 07:09:55;;;;;;;5.50;5.00;;;17.10;99.90;;;;;;5085119;28;20036;-42
2023/09/16 07:12:22;;;;;;;5.95;5.30;;;17.20;99.90;;;;;;5085867;28;20169;-42
2023/09/16 07:14:47;;;;;;;5.78;5.05;;;17.20;99.90;;;;;;5085471;28;20032;-43
2023/09/16 07:17:13;;;;;;;5.32;4.82;;;17.30;99.90;;;;;;5085634;28;20043;-42
2023/09/16 07:19:39;;;;;;;4.90;4.47;;;17.30;99.90;;;;;;5085962;28;20050;-42
2023/09/16 07:22:04;;;;;;;4.75;4.35;;;17.40;99.90;;;;;;5084883;28;20397;-43
2023/09/16 07:24:30;;;;;;;4.85;4.40;;;17.40;99.90;;;;;;5086202;28;20016;-43
2023/09/16 07:26:56;;;;;;;5.00;4.50;;;17.50;99.90;;;;;;5086329;28;20042;-43
2023/09/16 07:29:22;;;;;;;4.70;4.20;;;17.50;99.90;;;;;;5085151;28;20020;-42
2023/09/16 07:31:51;;;;;;;5.25;4.60;;;17.60;99.90;;;;;;5086351;28;20150;-43
2023/09/16 07:34:19;;;;;;;4.60;4.20;;;17.60;99.90;;;;;;5085360;28;20016;-42
2023/09/16 07:36:44;;;;;;;4.57;4.15;;;17.70;99.90;;;;;;5073533;28;20585;-42
2023/09/16 07:39:10;;;;;;;4.22;3.63;;;17.70;99.90;;;;;;5085028;28;20036;-44
2023/09/16 07:41:36;;;;;;;4.05;3.65;;;17.80;99.90;;;;;;5085809;28;20059;-43
2023/09/16 07:44:01;;;;;;;3.88;3.58;;;17.80;99.90;;;;;;5085066;28;20035;-43
2023/09/16 07:46:27;;;;;;;4.45;4.00;;;17.90;99.90;;;;;;5085257;28;20032;-43
2023/09/16 07:48:52;;;;;;;4.22;3.65;;;17.90;99.90;;;;;;5085921;28;20028;-42
2023/09/16 07:51:21;;;;;;;4.28;3.88;;;18.00;99.90;;;;;;5083922;28;20035;-42
2023/09/16 07:53:46;;;;;;;3.80;3.47;;;18.10;99.90;;;;;;5085710;28;20063;-43
2023/09/16 07:56:12;;;;;;;4.38;3.97;;;18.20;99.90;;;;;;5084955;28;20056;-42
2023/09/16 07:58:38;;;;;;;3.95;3.55;;;18.30;99.90;;;;;;5085245;28;20016;-43
2023/09/16 08:01:03;;;;;;;4.45;3.92;;;18.30;99.90;;;;;;5084296;28;20034;-43
2023/09/16 08:03:31;;;;;;;4.90;4.03;;;18.40;99.90;;;;;;5084925;28;20048;-42
2023/09/16 08:05:57;;;;;;;4.28;3.88;;;18.40;99.90;;;;;;5084641;28;20032;-43
2023/09/16 08:08:22;;;;;;;4.60;4.20;;;18.40;99.90;;;;;;5083339;28;20020;-43
2023/09/16 08:10:50;;;;;;;4.82;4.00;;;18.50;99.90;;;;;;5085051;28;20046;-43
2023/09/16 08:13:17;;;;;;;3.97;3.55;;;18.60;99.90;;;;;;5084195;28;20648;-43
2023/09/16 08:15:42;;;;;;;4.00;3.60;;;18.70;99.90;;;;;;5084799;28;20135;-43
2023/09/16 08:18:08;;;;;;;4.03;3.63;;;18.90;99.90;;;;;;5083873;28;20111;-43
2023/09/16 08:20:37;;;;;;;4.65;4.18;;;19.00;99.90;;;;;;5084575;28;20023;-44
2023/09/16 08:23:02;;;;;;;4.20;3.80;;;19.10;99.90;;;;;;5084296;28;20032;-42
2023/09/16 08:25:28;;;;;;;4.35;3.95;;;19.30;99.90;;;;;;5084161;28;20490;-43
2023/09/16 08:27:53;;;;;;;5.18;4.68;;;19.50;99.90;;;;;;5085024;28;20489;-43
2023/09/16 08:30:20;;;;;;;4.38;3.97;;;19.60;99.90;;;;;;5084549;28;20028;-43
2023/09/16 08:32:49;;;;;;;5.97;3.70;;;19.80;99.90;;;;;;5084018;28;20096;-43
2023/09/16 08:35:14;;;;;;;4.78;4.28;;;19.90;99.90;;;;;;5084660;28;20103;-43
2023/09/16 08:37:43;;;;;;;4.35;3.95;;;20.00;99.90;;;;;;5085080;28;20032;-43
2023/09/16 08:40:09;;;;;;;3.97;3.58;;;20.10;99.90;;;;;;5083665;28;20057;-44
2023/09/16 08:42:38;;;;;;;4.15;3.75;;;20.20;99.90;;;;;;5084981;28;20028;-43
2023/09/16 08:45:12;;;;;;;4.70;4.20;;;20.30;99.90;;;;;;5083914;28;20676;-43
2023/09/16 08:47:43;;;;;;;3.72;3.42;;;20.40;99.90;;;;;;5084757;28;20113;-43
2023/09/16 08:50:12;;;;;;;4.25;3.53;;;20.30;99.90;;;;;;5088244;28;20318;-43
2023/09/16 08:52:46;;;;;;;4.82;3.75;;;20.30;99.90;;;;;;5088774;28;20031;-43
2023/09/16 08:55:15;;;;;;;3.67;3.28;;;20.30;99.90;;;;;;5088286;28;20459;-43
2023/09/16 08:57:49;;;;;;;3.70;3.40;;;20.20;99.90;;;;;;5088815;28;20043;-43
2023/09/16 09:00:15;;;;;;;3.72;3.42;;;20.20;99.90;;;;;;5087961;28;20024;-43
2023/09/16 09:02:41;;;;;;;4.32;3.92;;;20.10;99.90;;;;;;5088792;28;20036;-43
2023/09/16 09:05:08;;;;;;;4.25;3.85;;;20.10;99.90;;;;;;5088138;28;20117;-42
2023/09/16 09:07:41;;;;;;;3.92;3.53;;;20.20;99.90;;;;;;5087900;28;20773;-43
2023/09/16 09:10:07;;;;;;;4.55;3.30;;;20.20;99.90;;;;;;5088785;28;20110;-43
2023/09/16 09:12:37;;;;;;;3.75;3.42;;;20.30;99.90;;;;;;5088619;28;20136;-43
2023/09/16 09:15:04;;;;;;;3.33;3.03;;;20.30;99.90;;;;;;5076247;28;20053;-44
2023/09/16 09:17:38;;;;;;;3.80;3.42;;;20.40;99.90;;;;;;5088456;28;20105;-44
2023/09/16 09:20:07;;;;;;;3.45;3.15;;;20.40;99.90;;;;;;5087639;28;20028;-43
2023/09/16 09:22:36;;;;;;;3.60;3.30;;;20.50;99.90;;;;;;5088041;28;20036;-43
2023/09/16 09:25:01;;;;;;;3.45;3.15;;;20.60;99.90;;;;;;5087946;28;20024;-43
2023/09/16 09:27:28;;;;;;;3.40;3.10;;;20.70;99.90;;;;;;5088104;28;20074;-43
2023/09/16 09:29:54;;;;;;;3.70;3.40;;;20.70;99.90;;;;;;5087105;28;20016;-43
2023/09/16 09:32:21;;;;;;;4.30;3.40;;;20.80;99.90;;;;;;5087885;28;20031;-43
2023/09/16 09:34:47;;;;;;;3.30;3.00;;;20.80;99.90;;;;;;5088139;28;20074;-43
2023/09/16 09:37:19;;;;;;;4.55;3.17;;;20.90;99.90;;;;;;5087247;28;20039;-43
2023/09/16 09:39:45;;;;;;;4.90;3.20;;;20.90;99.90;;;;;;5088269;28;20024;-43
2023/09/16 09:42:19;;;;;;;3.22;2.75;;;21.00;99.90;;;;;;5087264;28;20081;-43
2023/09/16 09:44:48;;;;;;;3.50;3.13;;;21.10;99.90;;;;;;5086237;28;20024;-42
2023/09/16 09:47:15;;;;;;;3.17;2.83;;;21.20;99.90;;;;;;5087287;28;20483;-43
2023/09/16 09:49:50;;;;;;;4.28;3.13;;;21.30;99.90;;;;;;5087232;28;20046;-42
2023/09/16 09:52:16;;;;;;;2.95;2.70;;;21.40;99.90;;;;;;5087252;28;20031;-43
2023/09/16 09:54:41;;;;;;;4.25;2.75;;;21.40;99.90;;;;;;5087137;28;20016;-42
2023/09/16 09:57:07;;;;;;;3.40;2.63;;;21.40;99.90;;;;;;5086607;28;20028;-43
2023/09/16 09:59:34;;;;;;;3.33;3.03;;;21.40;99.90;;;;;;5087727;28;20075;-43
2023/09/16 10:02:03;;;;;;;3.38;3.05;;;21.60;99.90;;;;;;5087608;28;20480;-43
2023/09/16 10:04:30;;;;;;;4.28;2.92;;;21.60;99.90;;;;;;5086869;28;20019;-44
2023/09/16 10:06:57;;;;;;;3.17;2.78;;;21.70;99.90;;;;;;5087300;28;20076;-44
2023/09/16 10:09:22;;;;;;;4.03;2.53;;;21.80;99.90;;;;;;5085381;28;20024;-43
2023/09/16 10:11:48;;;;;;;3.92;2.90;;;21.80;99.90;;;;;;5086470;28;20024;-43
2023/09/16 10:14:14;;;;;;;2.67;2.47;;;21.90;99.90;;;;;;5087125;28;20028;-43
2023/09/16 10:16:40;;;;;;;2.78;2.55;;;21.90;99.90;;;;;;5087337;28;20023;-43
2023/09/16 10:19:06;;;;;;;3.90;2.60;;;22.00;99.90;;;;;;5085798;28;20048;-43
2023/09/16 10:21:31;;;;;;;2.70;2.50;;;22.00;99.90;;;;;;5087045;28;20028;-44
2023/09/16 10:23:57;;;;;;;2.58;2.20;;;22.00;99.90;;;;;;5087377;28;20106;-43
2023/09/16 10:26:23;;;;;;;2.30;2.10;;;22.00;99.90;;;;;;5085913;28;20125;-43
2023/09/16 10:28:52;;;;;;;2.50;2.30;;;22.10;99.90;;;;;;5073304;28;20144;-43
2023/09/16 10:31:18;;;;;;;3.03;2.38;;;22.20;99.90;;;;;;5081188;28;20028;-44
2023/09/16 10:33:45;;;;;;;3.08;2.20;;;22.20;99.90;;;;;;5086646;28;20063;-43
2023/09/16 10:36:11;;;;;;;2.35;1.90;;;22.20;99.90;;;;;;5086542;28;20081;-43
2023/09/16 10:38:38;;;;;;;2.00;1.80;;;22.30;99.90;;;;;;5086515;28;20032;-44
2023/09/16 10:41:06;;;;;;;1.77;1.67;;;22.30;99.90;;;;;;5086421;28;20020;-43
2023/09/16 10:43:31;;;;;;;2.17;1.88;;;22.30;99.90;;;;;;5086732;28;20032;-44
2023/09/16 10:45:58;;;;;;;2.17;1.98;;;22.30;99.90;;;;;;5085971;28;20044;-44
2023/09/16 10:48:24;;;;;;;2.20;2.00;;;22.40;99.90;;;;;;5086526;28;20051;-44
2023/09/16 10:50:55;;;;;;;2.25;1.70;;;22.50;99.90;;;;;;5086616;28;20442;-44
2023/09/16 10:53:36;;;;;;;2.20;2.00;;;22.60;99.90;;;;;;5074962;28;20020;-44
2023/09/16 10:56:11;;;;;;;1.80;1.70;;;22.60;99.90;;;;;;5085937;28;20032;-44
2023/09/16 10:58:43;;;;;;;2.15;1.95;;;22.60;99.90;;;;;;5075442;28;20035;-44
2023/09/16 11:01:11;;;;;;;2.20;2.00;;;22.70;99.90;;;;;;5085044;28;20407;-43
2023/09/16 11:03:41;;;;;;;2.30;1.80;;;22.80;99.90;;;;;;5086593;28;20040;-43
2023/09/16 11:06:06;;;;;;;2.10;1.90;;;22.80;99.90;;;;;;5085913;28;20040;-42
2023/09/16 11:08:32;;;;;;;2.20;2.00;;;22.80;99.90;;;;;;5085664;28;20027;-44
2023/09/16 11:10:58;;;;;;;2.88;2.25;;;22.90;99.90;;;;;;5085131;28;20038;-44
2023/09/16 11:13:26;;;;;;;2.22;2.03;;;23.00;99.90;;;;;;5086171;28;20020;-43
2023/09/16 11:15:52;;;;;;;2.65;2.05;;;23.00;99.90;;;;;;5086325;28;20117;-44
2023/09/16 11:18:20;;;;;;;2.70;2.50;;;23.10;99.90;;;;;;5085379;28;20036;-43
2023/09/16 11:20:46;;;;;;;2.95;2.40;;;23.10;99.90;;;;;;5085889;28;20028;-43
2023/09/16 11:23:12;;;;;;;3.03;2.42;;;23.10;99.90;;;;;;5084802;28;20422;-44
2023/09/16 11:25:44;;;;;;;2.75;2.20;;;23.20;99.90;;;;;;5086037;28;20036;-43
2023/09/16 11:28:12;;;;;;;2.10;1.88;;;23.20;99.90;;;;;;5081910;28;20110;-43
2023/09/16 11:30:52;;;;;;;2.10;2.00;;;23.30;99.90;;;;;;5086400;28;20027;-43
2023/09/16 11:33:49;;;;;;;1.85;1.65;;;23.30;99.90;;;;;;5085448;28;20024;-44
2023/09/16 11:36:16;;;;;;;2.20;2.00;;;23.40;99.90;;;;;;5060504;28;20477;-44
2023/09/16 11:38:58;;;;;;;1.98;1.88;;;23.40;99.90;;;;;;5082788;28;20033;-44
2023/09/16 11:41:24;;;;;;;2.08;1.88;;;23.50;99.90;;;;;;5066329;28;20024;-45
2023/09/16 11:43:50;;;;;;;2.45;2.25;;;23.50;99.90;;;;;;5080788;28;20028;-43
2023/09/16 11:46:16;;;;;;;3.42;2.30;;;23.60;99.90;;;;;;5085341;28;20035;-43
2023/09/16 11:48:56;;;;;;;2.40;2.20;;;23.60;99.90;;;;;;5085037;28;20020;-43
2023/09/16 11:51:28;;;;;;;2.10;1.90;;;23.70;99.90;;;;;;5084767;28;20039;-44
2023/09/16 11:53:55;;;;;;;2.30;2.10;;;23.70;99.90;;;;;;5085620;28;20016;-44
2023/09/16 11:56:26;;;;;;;2.20;2.00;;;23.80;99.90;;;;;;5084365;28;20036;-43
2023/09/16 11:58:54;;;;;;;2.70;2.50;;;23.80;99.90;;;;;;5085810;28;20081;-42
2023/09/16 12:01:28;;;;;;;2.33;2.13;;;23.80;99.90;;;;;;5084903;28;20035;-44
2023/09/16 12:03:56;;;;;;;2.53;2.33;;;23.80;99.90;;;;;;5084364;28;20487;-43
2023/09/16 12:06:26;;;;;;;1.90;1.80;;;23.80;99.90;;;;;;5084993;28;20028;-43
2023/09/16 12:08:57;;;;;;;3.20;1.90;;;23.70;99.90;;;;;;5084797;28;20475;-43
2023/09/16 12:11:23;;;;;;;1.90;1.80;;;23.80;99.90;;;;;;5084277;28;20028;-43
2023/09/16 12:13:49;;;;;;;1.83;1.70;;;23.80;99.90;;;;;;5085095;28;20016;-44
2023/09/16 12:16:15;;;;;;;2.05;1.90;;;23.80;99.90;;;;;;5084640;28;20081;-43
2023/09/16 12:18:45;;;;;;;2.00;1.90;;;23.80;99.90;;;;;;5084335;28;20064;-42
2023/09/16 12:21:12;;;;;;;3.05;1.73;;;23.80;99.90;;;;;;5085096;28;20033;-43
2023/09/16 12:23:49;;;;;;;2.42;1.90;;;23.80;99.90;;;;;;5084860;28;20108;-45
2023/09/16 12:26:18;;;;;;;2.10;1.90;;;23.80;99.90;;;;;;5084256;28;20120;-43
2023/09/16 12:28:44;;;;;;;1.95;1.70;;;23.80;99.90;;;;;;5084723;28;20058;-43
2023/09/16 12:31:11;;;;;;;2.42;2.00;;;23.90;99.90;;;;;;5083952;28;20107;-43
2023/09/16 12:33:38;;;;;;;2.33;1.75;;;23.90;99.90;;;;;;5084584;28;20036;-43
2023/09/16 12:36:04;;;;;;;2.75;2.00;;;24.00;99.90;;;;;;5084457;28;20024;-44
2023/09/16 12:38:35;;;;;;;1.75;1.65;;;24.00;99.90;;;;;;5084788;28;20103;-43
2023/09/16 12:41:02;;;;;;;2.13;1.95;;;24.00;99.90;;;;;;5084893;28;20081;-44
2023/09/16 12:43:29;;;;;;;2.05;1.95;;;24.10;99.90;;;;;;5084914;28;20103;-45
2023/09/16 12:45:56;;;;;;;2.03;1.77;;;24.10;99.90;;;;;;5083236;28;20040;-43
2023/09/16 12:48:21;;;;;;;2.05;1.85;;;24.10;99.90;;;;;;5084292;28;20022;-43